Time;durP1;ratioP1;P1;durP2;ratioP2;P2;SDS_P1;SDS_P2;PMS_P1;PMS_P2;Temp;Humidity;BMP_temperature;BMP_pressure;BME280_temperature;BME280_humidity;BME280_pressure;Samples;Min_cycle;Max_cycle;Signal;HPM_P1;HPM_P2
2023/09/18 00:00:14;;;;;;;4.13;3.72;;;;;;;21.42;59.41;100525.91;5048297;28;20195;-88
2023/09/18 00:02:45;;;;;;;3.97;3.58;;;;;;;21.39;59.94;100524.31;5046740;28;20569;-91
2023/09/18 00:05:16;;;;;;;3.40;3.10;;;;;;;21.22;60.25;100503.25;5047422;28;20191;-90
2023/09/18 00:07:50;;;;;;;4.18;3.78;;;;;;;21.32;60.44;100522.88;5048409;28;20254;-90
2023/09/18 00:10:19;;;;;;;3.85;3.35;;;;;;;21.13;60.79;100483.56;5028981;28;20289;-88
2023/09/18 00:12:54;;;;;;;4.53;3.47;;;;;;;21.30;60.93;100511.59;5039826;28;20202;-90
2023/09/18 00:15:26;;;;;;;4.90;3.78;;;;;;;21.27;61.35;100510.91;5053622;28;20221;-89
2023/09/18 00:17:56;;;;;;;4.05;3.47;;;;;;;21.05;61.45;100485.72;5037836;28;20196;-88
2023/09/18 00:20:26;;;;;;;5.30;4.20;;;;;;;21.04;61.77;100489.25;5034743;28;20199;-90
2023/09/18 00:22:58;;;;;;;4.22;3.92;;;;;;;21.20;61.87;100511.19;5047300;28;20210;-91
2023/09/18 00:25:32;;;;;;;6.20;4.38;;;;;;;21.16;62.20;100514.88;5056095;28;20210;-89
2023/09/18 00:28:04;;;;;;;5.00;4.50;;;;;;;21.00;62.23;100487.72;5047867;28;20238;-88
2023/09/18 00:30:34;;;;;;;4.60;4.20;;;;;;;20.98;62.54;100492.16;5041503;28;20579;-89
2023/09/18 00:33:04;;;;;;;4.95;4.45;;;;;;;20.97;62.70;100485.25;5040344;28;20719;-84
2023/09/18 00:35:48;;;;;;;5.38;4.85;;;;;;;20.95;62.83;100489.69;5036054;28;20226;-82
2023/09/18 00:38:21;;;;;;;4.97;4.22;;;;;;;21.04;63.00;100506.75;4979700;28;20615;-83
2023/09/18 00:40:52;;;;;;;4.30;3.90;;;;;;;20.96;63.26;100500.13;4996354;28;20250;-85
2023/09/18 00:43:22;;;;;;;5.22;4.72;;;;;;;20.92;63.22;100493.31;4993982;28;20218;-84
2023/09/18 00:45:53;;;;;;;7.63;4.25;;;;;;;21.00;63.33;100508.69;4997272;28;20792;-85
2023/09/18 00:48:29;;;;;;;5.28;4.78;;;;;;;20.96;63.69;100517.59;4980440;28;20268;-85
2023/09/18 00:51:08;;;;;;;5.10;4.43;;;;;;;20.87;63.77;100518.88;4992206;28;20663;-85
2023/09/18 00:53:39;;;;;;;6.18;5.60;;;;;;;20.76;63.73;100500.19;4997056;28;20214;-85
2023/09/18 00:56:09;;;;;;;5.82;4.45;;;;;;;20.80;64.27;100513.97;4999258;28;20701;-84
2023/09/18 00:58:41;;;;;;;5.43;4.47;;;;;;;20.74;64.33;100518.59;5001208;28;20205;-85
2023/09/18 01:01:14;;;;;;;6.95;4.28;;;;;;;20.48;64.44;100490.13;5000122;28;20224;-88
2023/09/18 01:03:46;;;;;;;5.38;4.82;;;;;;;20.60;64.70;100510.53;5001638;28;20286;-85
2023/09/18 01:06:17;;;;;;;5.75;5.05;;;;;;;20.64;65.19;100524.31;5003064;28;20250;-87
2023/09/18 01:08:53;;;;;;;5.85;5.20;;;;;;;20.58;65.09;100520.19;5008605;28;20234;-86
2023/09/18 01:11:34;;;;;;;4.78;4.38;;;;;;;20.56;65.34;100529.91;5005614;28;20232;-86
2023/09/18 01:14:11;;;;;;;6.63;4.25;;;;;;;20.54;65.31;100510.78;5016754;28;20208;-88
2023/09/18 01:16:54;;;;;;;5.85;5.10;;;;;;;20.45;65.48;100509.41;5015947;28;20204;-87
2023/09/18 01:19:40;;;;;;;5.57;5.07;;;;;;;20.43;65.67;100513.84;5017902;28;20203;-84
2023/09/18 01:22:12;;;;;;;4.97;4.50;;;;;;;20.29;65.89;100500.56;5012689;28;20240;-85
2023/09/18 01:24:44;;;;;;;5.47;4.97;;;;;;;20.35;65.82;100509.91;5020770;28;20211;-87
2023/09/18 01:27:18;;;;;;;5.60;5.10;;;;;;;20.39;66.11;100527.16;5012441;28;20200;-85
2023/09/18 01:29:53;;;;;;;5.10;4.50;;;;;;;20.22;66.11;100491.28;5006391;28;20231;-87
2023/09/18 01:32:32;;;;;;;5.60;4.97;;;;;;;20.15;66.15;100488.09;5011644;28;20208;-88
2023/09/18 01:35:05;;;;;;;5.40;4.72;;;;;;;20.35;66.43;100523.81;5026907;28;20598;-87
2023/09/18 01:37:35;;;;;;;5.28;4.85;;;;;;;20.23;66.39;100513.91;5048163;28;20234;-88
2023/09/18 01:40:08;;;;;;;5.95;4.78;;;;;;;20.18;66.36;100500.19;5057516;28;20202;-86
2023/09/18 01:42:41;;;;;;;7.47;4.93;;;;;;;20.32;66.29;100520.50;5048614;28;20190;-87
2023/09/18 01:45:12;;;;;;;5.32;4.82;;;;;;;20.31;66.51;100518.81;5050045;28;20213;-90
2023/09/18 01:47:43;;;;;;;5.78;5.18;;;;;;;20.30;66.61;100517.13;5048403;28;20216;-84
2023/09/18 01:50:13;;;;;;;7.30;5.53;;;;;;;20.21;66.68;100513.13;5041101;28;20194;-84
2023/09/18 01:52:50;;;;;;;5.93;4.68;;;;;;;20.13;66.59;100497.75;5049675;28;20207;-89
2023/09/18 01:55:26;;;;;;;5.53;4.88;;;;;;;20.30;66.74;100517.97;5050529;28;20234;-91
2023/09/18 01:57:57;;;;;;;5.47;4.72;;;;;;;20.07;66.31;100469.25;5039128;28;20206;-92
2023/09/18 02:00:27;;;;;;;6.88;4.95;;;;;;;20.29;66.35;100516.28;5047875;28;20207;-91
2023/09/18 02:02:57;;;;;;;5.47;4.90;;;;;;;20.17;66.38;100491.47;5031485;28;20967;-90
2023/09/18 02:05:46;;;;;;;5.35;4.85;;;;;;;20.13;66.59;100479.44;5044992;28;20538;-83
2023/09/18 02:08:15;;;;;;;6.28;5.28;;;;;;;20.18;66.30;100487.97;5045552;28;20210;-92
2023/09/18 02:10:50;;;;;;;7.35;5.50;;;;;;;20.25;66.50;100494.63;5049286;28;20297;-91
2023/09/18 02:13:28;;;;;;;5.18;4.72;;;;;;;20.23;66.66;100506.91;5053822;28;20609;-83
2023/09/18 02:16:15;;;;;;;5.93;5.13;;;;;;;20.23;66.57;100501.66;5043785;28;20226;-85
2023/09/18 02:18:47;;;;;;;4.70;4.28;;;;;;;20.22;66.53;100499.97;5031874;28;20213;-84
2023/09/18 02:21:26;;;;;;;7.97;4.97;;;;;;;20.10;66.67;100479.56;5040831;28;20209;-87
2023/09/18 02:23:58;;;;;;;6.25;4.95;;;;;;;20.22;66.91;100499.97;5036638;28;21103;-86
2023/09/18 02:26:36;;;;;;;5.20;4.70;;;;;;;20.18;66.99;100482.72;5048096;28;20260;-86
2023/09/18 02:29:11;;;;;;;6.55;4.97;;;;;;;20.14;66.95;100478.53;5025776;28;20223;-85
2023/09/18 02:31:40;;;;;;;5.40;4.90;;;;;;;20.21;66.95;100482.59;5036911;28;20214;-82
2023/09/18 02:34:12;;;;;;;7.88;5.43;;;;;;;20.24;67.01;100484.19;5039411;28;20240;-84
2023/09/18 02:36:43;;;;;;;6.55;5.85;;;;;;;20.16;66.86;100470.63;5039691;28;20332;-82
2023/09/18 02:39:15;;;;;;;7.32;5.13;;;;;;;20.24;66.91;100482.44;5031216;28;20211;-82
2023/09/18 02:41:48;;;;;;;5.40;4.90;;;;;;;20.25;66.80;100472.81;5040907;28;20577;-82
2023/09/18 02:44:17;;;;;;;5.57;5.03;;;;;;;20.13;67.05;100462.91;5041008;28;20207;-81
2023/09/18 02:46:45;;;;;;;7.70;4.90;;;;;;;20.21;67.06;100473.88;5040112;28;20210;-83
2023/09/18 02:49:14;;;;;;;5.63;5.13;;;;;;;20.22;66.64;100467.75;5040705;28;20272;-82
2023/09/18 02:51:43;;;;;;;5.60;5.10;;;;;;;20.21;66.62;100458.16;5052215;28;20202;-85
2023/09/18 02:54:14;;;;;;;5.75;5.20;;;;;;;20.07;66.72;100427.41;5034989;28;20206;-81
2023/09/18 02:56:42;;;;;;;5.75;5.25;;;;;;;20.28;66.65;100465.66;5041866;28;20233;-85
2023/09/18 02:59:16;;;;;;;6.78;5.50;;;;;;;20.21;66.81;100464.28;5022317;28;20201;-90
2023/09/18 03:01:46;;;;;;;5.05;4.55;;;;;;;20.31;66.52;100475.16;5050171;28;20211;-91
2023/09/18 03:04:24;;;;;;;6.50;4.70;;;;;;;20.11;66.00;100439.44;5051864;28;20281;-90
2023/09/18 03:06:56;;;;;;;6.10;4.65;;;;;;;20.25;65.73;100451.88;5051412;28;20198;-89
2023/09/18 03:09:25;;;;;;;4.90;4.43;;;;;;;20.39;65.63;100474.81;5050750;28;20330;-89
2023/09/18 03:11:59;;;;;;;6.72;5.00;;;;;;;20.39;65.50;100465.19;5053107;28;20206;-91
2023/09/18 03:14:29;;;;;;;5.68;5.07;;;;;;;20.42;65.25;100474.69;5039306;28;20233;-81
2023/09/18 03:16:58;;;;;;;6.38;4.70;;;;;;;20.42;65.23;100469.44;5036849;28;20254;-87
2023/09/18 03:19:29;;;;;;;6.50;5.57;;;;;;;20.23;65.14;100448.50;5034938;28;20207;-87
2023/09/18 03:22:00;;;;;;;7.15;5.68;;;;;;;20.29;65.31;100450.84;5044242;28;20182;-88
2023/09/18 03:24:30;;;;;;;5.78;5.28;;;;;;;20.47;65.27;100475.31;5044536;28;20195;-86
2023/09/18 03:27:05;;;;;;;5.68;5.18;;;;;;;20.24;65.40;100432.72;5023284;28;20218;-85
2023/09/18 03:29:45;;;;;;;6.07;5.47;;;;;;;20.49;65.30;100468.25;5036214;28;20210;-89
2023/09/18 03:35:35;;;;;;;6.90;5.50;;;;;;;20.38;65.47;100457.41;5050064;28;20214;-90
2023/09/18 03:38:20;;;;;;;;;;;;;;;;;;;;;
2023/09/18 03:40:49;;;;;;;6.47;5.90;;;;;;;20.43;65.80;100468.50;5042603;28;20191;-89
2023/09/18 03:43:29;;;;;;;6.95;6.25;;;;;;;20.31;66.05;100456.00;5044949;28;20262;-88
2023/09/18 03:46:25;;;;;;;6.43;5.63;;;;;;;20.33;65.74;100464.66;5049288;28;20221;-90
2023/09/18 03:48:55;;;;;;;6.93;5.63;;;;;;;20.42;65.66;100479.91;5040074;28;20286;-83
2023/09/18 03:51:23;;;;;;;7.50;6.00;;;;;;;20.27;65.87;100453.50;5033266;28;20649;-84
2023/09/18 03:53:54;;;;;;;7.55;6.65;;;;;;;20.14;66.01;100449.75;5025141;28;20624;-84
2023/09/18 03:56:23;;;;;;;6.72;6.13;;;;;;;20.37;66.16;100476.66;5035111;28;20209;-84
2023/09/18 03:58:52;;;;;;;7.30;5.95;;;;;;;20.25;66.33;100460.59;5043312;28;20969;-87
2023/09/18 04:01:25;;;;;;;9.45;6.55;;;;;;;20.13;66.45;100431.50;5023927;28;20708;-84
2023/09/18 04:03:54;;;;;;;6.93;6.13;;;;;;;20.37;66.31;100471.44;5035900;28;20241;-84
2023/09/18 04:06:24;;;;;;;6.78;5.75;;;;;;;20.37;66.36;100481.91;5038745;28;20697;-85
2023/09/18 04:08:54;;;;;;;7.53;6.18;;;;;;;20.27;66.51;100466.59;5040883;28;20645;-86
2023/09/18 04:11:31;;;;;;;7.03;6.32;;;;;;;20.32;66.56;100473.38;5043615;28;20199;-87
2023/09/18 04:14:03;;;;;;;7.78;6.35;;;;;;;20.19;66.83;100454.78;5043088;28;20214;-85
2023/09/18 04:16:36;;;;;;;9.50;7.00;;;;;;;20.32;66.76;100468.16;5035023;28;20253;-88
2023/09/18 04:19:08;;;;;;;9.95;6.80;;;;;;;20.31;66.52;100467.31;5034633;28;20214;-87
2023/09/18 04:21:55;;;;;;;7.35;6.50;;;;;;;20.17;66.82;100457.44;5051074;28;20215;-91
2023/09/18 04:25:05;;;;;;;8.60;7.30;;;;;;;20.28;66.66;100457.81;5053909;28;20198;-90
2023/09/18 04:30:50;;;;;;;7.45;6.75;;;;;;;20.15;66.88;100446.22;4974571;28;20236;-88
2023/09/18 04:34:08;;;;;;;7.95;7.07;;;;;;;20.20;67.16;100452.09;4974194;28;20261;-88
2023/09/18 04:37:28;;;;;;;8.93;6.95;;;;;;;19.99;67.04;100419.91;4974117;28;20241;-89
2023/09/18 04:40:31;;;;;;;14.65;7.32;;;;;;;20.04;67.42;100448.47;4968332;28;20233;-90
2023/09/18 04:43:05;;;;;;;8.60;7.80;;;;;;;19.78;67.62;100424.31;4963551;28;20268;-90
2023/09/18 04:45:39;;;;;;;8.05;6.88;;;;;;;19.74;67.97;100408.81;4972576;28;20241;-91
2023/09/18 04:48:19;;;;;;;8.90;7.72;;;;;;;19.95;68.10;100441.84;4959086;28;20221;-89
2023/09/18 04:50:59;;;;;;;8.75;7.05;;;;;;;19.95;68.06;100443.63;4973441;28;20212;-91
2023/09/18 04:53:58;;;;;;;8.63;6.75;;;;;;;19.83;68.15;100416.25;4968480;28;20209;-89
2023/09/18 04:56:29;;;;;;;9.30;7.13;;;;;;;20.03;68.05;100452.00;5026733;23;20316;-63
2023/09/18 04:58:58;;;;;;;8.15;7.20;;;;;;;20.07;67.83;100443.09;5027477;28;20245;-60
2023/09/18 05:01:26;;;;;;;8.38;6.97;;;;;;;20.12;67.83;100441.13;5027014;28;20281;-62
2023/09/18 05:03:54;;;;;;;8.05;6.97;;;;;;;20.16;67.61;100440.06;5032230;28;20198;-63
2023/09/18 05:06:22;;;;;;;8.57;7.30;;;;;;;20.17;67.57;100441.75;5023685;28;20271;-59
2023/09/18 05:08:50;;;;;;;8.85;6.95;;;;;;;20.14;67.71;100441.03;5022051;28;20206;-61
2023/09/18 05:11:18;;;;;;;8.10;7.30;;;;;;;20.08;68.02;100441.34;5029206;28;20549;-60
2023/09/18 05:13:47;;;;;;;8.73;7.50;;;;;;;20.05;68.33;100439.69;5024584;28;20202;-61
2023/09/18 05:16:17;;;;;;;11.90;7.65;;;;;;;20.04;68.50;100435.38;5031371;28;20213;-59
2023/09/18 05:18:45;;;;;;;12.23;8.05;;;;;;;20.06;68.51;100430.91;5039845;28;20317;-60
2023/09/18 05:21:13;;;;;;;12.93;7.88;;;;;;;20.07;68.52;100431.75;5029658;28;20217;-61
2023/09/18 05:23:41;;;;;;;10.88;7.57;;;;;;;20.09;68.64;100430.78;5043407;28;20217;-59
2023/09/18 05:26:11;;;;;;;8.80;7.72;;;;;;;20.18;68.51;100430.41;5033954;28;20728;-61
2023/09/18 05:28:39;;;;;;;10.48;8.32;;;;;;;20.25;68.51;100423.97;5042485;28;20651;-58
2023/09/18 05:31:09;;;;;;;8.48;7.68;;;;;;;20.36;68.24;100425.22;5035097;28;20207;-60
2023/09/18 05:33:37;;;;;;;8.65;7.68;;;;;;;20.43;67.85;100424.84;5039540;28;20294;-60
2023/09/18 05:36:05;;;;;;;8.80;7.10;;;;;;;20.53;67.90;100414.00;5033791;28;20194;-61
2023/09/18 05:38:33;;;;;;;8.38;7.38;;;;;;;20.65;67.31;100413.41;5036987;28;20225;-61
2023/09/18 05:41:01;;;;;;;8.70;7.80;;;;;;;20.74;67.07;100411.22;5028175;28;20413;-61
2023/09/18 05:43:30;;;;;;;10.60;7.50;;;;;;;20.83;66.71;100412.53;5032288;28;20545;-60
2023/09/18 05:45:58;;;;;;;11.18;8.48;;;;;;;20.90;66.61;100411.31;5021557;28;20209;-60
2023/09/18 05:48:27;;;;;;;10.05;7.65;;;;;;;20.97;66.20;100399.63;5036934;28;20245;-60
2023/09/18 05:50:55;;;;;;;12.35;8.32;;;;;;;20.99;65.92;100403.03;5032186;28;20248;-60
2023/09/18 05:53:23;;;;;;;15.70;8.02;;;;;;;21.04;65.74;100402.81;5031048;28;20650;-61
2023/09/18 05:55:51;;;;;;;11.63;7.70;;;;;;;21.05;65.93;100394.00;5035295;28;20225;-61
2023/09/18 05:58:24;;;;;;;10.48;7.53;;;;;;;21.05;65.74;100388.78;5032844;28;20210;-60
2023/09/18 06:00:52;;;;;;;14.80;7.72;;;;;;;21.08;65.85;100393.03;5031819;28;20712;-61
2023/09/18 06:03:21;;;;;;;13.07;8.30;;;;;;;21.12;65.92;100394.56;5022920;28;20209;-59
2023/09/18 06:05:51;;;;;;;9.75;8.45;;;;;;;21.15;65.55;100387.41;5030512;28;20669;-61
2023/09/18 06:08:19;;;;;;;12.02;7.85;;;;;;;21.14;65.46;100390.09;5030601;28;20210;-61
2023/09/18 06:10:47;;;;;;;11.63;7.82;;;;;;;21.15;65.86;100397.88;5033210;28;20562;-60
2023/09/18 06:13:15;;;;;;;10.43;8.55;;;;;;;21.15;65.95;100397.88;5034844;28;20200;-60
2023/09/18 06:15:43;;;;;;;13.05;8.57;;;;;;;21.18;65.79;100397.72;5030280;28;20213;-62
2023/09/18 06:18:11;;;;;;;10.73;8.02;;;;;;;21.18;65.89;100396.88;5037734;28;20218;-59
2023/09/18 06:20:39;;;;;;;10.43;7.68;;;;;;;21.20;65.55;100401.09;5032890;28;20211;-60
2023/09/18 06:23:08;;;;;;;14.20;8.38;;;;;;;21.21;65.86;100401.97;5029409;28;20252;-59
2023/09/18 06:25:37;;;;;;;12.60;8.75;;;;;;;21.24;66.03;100396.56;5028068;28;20298;-59
2023/09/18 06:28:05;;;;;;;11.52;8.00;;;;;;;21.33;65.95;100395.28;5027681;28;20744;-60
2023/09/18 06:30:36;;;;;;;10.45;8.73;;;;;;;21.43;65.65;100399.16;5036914;28;20212;-61
2023/09/18 06:33:04;;;;;;;10.25;8.70;;;;;;;21.56;65.49;100392.34;5020249;28;20237;-60
2023/09/18 06:35:33;;;;;;;9.77;8.77;;;;;;;21.75;64.87;100396.63;5027531;28;20215;-59
2023/09/18 06:38:01;;;;;;;12.43;8.73;;;;;;;21.93;64.32;100396.50;5032307;28;20214;-61
2023/09/18 06:40:30;;;;;;;12.52;8.15;;;;;;;22.11;63.74;100383.34;5030652;28;20276;-59
2023/09/18 06:43:01;;;;;;;13.13;8.65;;;;;;;22.29;63.10;100394.66;5028272;28;20657;-60
2023/09/18 06:45:29;;;;;;;9.30;8.27;;;;;;;22.42;62.43;100385.16;5033204;28;20218;-60
2023/09/18 06:47:57;;;;;;;9.88;7.97;;;;;;;22.52;61.98;100393.38;5028387;28;20549;-59
2023/09/18 06:50:25;;;;;;;9.45;7.88;;;;;;;22.67;61.86;100388.09;5021154;28;20657;-60
2023/09/18 06:52:53;;;;;;;10.30;7.90;;;;;;;22.90;61.07;100381.56;5025037;28;20202;-60
2023/09/18 06:55:22;;;;;;;9.05;8.15;;;;;;;23.15;60.59;100386.25;5031240;28;20209;-60
2023/09/18 06:57:52;;;;;;;11.18;8.93;;;;;;;23.46;59.61;100376.59;5030652;28;20246;-59
2023/09/18 07:00:20;;;;;;;9.98;8.43;;;;;;;23.76;58.45;100380.97;5032856;28;20202;-59
2023/09/18 07:02:49;;;;;;;9.68;7.65;;;;;;;24.06;57.70;100381.69;5033386;28;20203;-60
2023/09/18 07:05:17;;;;;;;8.80;7.68;;;;;;;24.38;56.68;100376.19;5025352;28;20650;-59
2023/09/18 07:07:45;;;;;;;12.75;7.68;;;;;;;24.67;55.40;100378.75;5029601;28;20256;-62
2023/09/18 07:10:13;;;;;;;9.32;7.50;;;;;;;24.94;55.00;100376.97;5028937;28;20210;-60
2023/09/18 07:12:41;;;;;;;10.90;7.70;;;;;;;25.31;53.73;100382.44;5032696;28;20672;-58
2023/09/18 07:15:11;;;;;;;7.50;6.80;;;;;;;25.59;52.84;100376.13;5025093;28;20209;-59
2023/09/18 07:17:39;;;;;;;9.32;7.60;;;;;;;25.90;52.27;100376.66;5036166;28;20209;-59
2023/09/18 07:20:13;;;;;;;9.25;8.00;;;;;;;26.38;50.91;100374.97;5037877;28;20217;-60
2023/09/18 07:22:48;;;;;;;8.98;7.30;;;;;;;26.97;49.59;100382.13;5028086;28;20660;-60
2023/09/18 07:25:16;;;;;;;9.52;6.45;;;;;;;27.67;47.92;100381.25;5027730;28;20734;-62
2023/09/18 07:27:44;;;;;;;9.95;7.20;;;;;;;28.61;45.96;100382.63;5030374;28;20207;-68
2023/09/18 07:30:17;;;;;;;9.15;6.65;;;;;;;29.77;43.52;100372.88;5029669;28;20195;-64
2023/09/18 07:32:45;;;;;;;8.35;6.82;;;;;;;31.17;40.22;100361.22;5034247;28;20220;-57
2023/09/18 07:35:14;;;;;;;8.90;6.68;;;;;;;32.68;37.38;100351.13;5030498;28;20749;-56
2023/09/18 07:37:44;;;;;;;8.65;6.38;;;;;;;34.24;34.44;100360.97;5028676;28;20202;-59
2023/09/18 07:40:12;;;;;;;9.35;6.40;;;;;;;35.59;32.15;100356.16;5030233;28;20249;-60
2023/09/18 07:42:40;;;;;;;7.25;6.50;;;;;;;36.25;29.98;100346.81;5025997;28;20209;-60
2023/09/18 07:45:08;;;;;;;7.95;6.70;;;;;;;36.96;28.57;100356.38;5031572;28;20199;-59
2023/09/18 07:47:38;;;;;;;7.20;6.45;;;;;;;37.44;28.10;100353.41;5028341;28;20285;-60
2023/09/18 07:50:07;;;;;;;7.65;6.68;;;;;;;38.08;26.60;100350.16;5025665;28;20203;-59
2023/09/18 07:52:35;;;;;;;8.63;5.82;;;;;;;38.33;26.01;100354.16;5024387;28;20222;-60
2023/09/18 07:55:03;;;;;;;6.25;5.70;;;;;;;38.54;26.23;100357.88;5031729;28;20211;-60
2023/09/18 07:57:34;;;;;;;6.03;5.43;;;;;;;38.64;26.12;100353.03;5030425;28;20280;-60
2023/09/18 08:00:12;;;;;;;7.03;6.30;;;;;;;38.77;25.59;100354.97;5027928;28;20321;-59
2023/09/18 08:02:41;;;;;;;6.60;5.95;;;;;;;38.88;25.50;100352.63;5025503;28;21050;-61
2023/09/18 08:05:10;;;;;;;6.75;6.20;;;;;;;39.09;24.81;100348.22;5023201;28;20202;-59
2023/09/18 08:07:40;;;;;;;6.47;5.88;;;;;;;39.18;24.96;100341.66;5024528;28;20672;-59
2023/09/18 08:10:09;;;;;;;8.25;5.97;;;;;;;39.17;25.34;100342.69;5025942;28;20711;-59
2023/09/18 08:12:37;;;;;;;7.10;6.40;;;;;;;39.37;25.09;100332.88;5026150;28;20212;-62
2023/09/18 08:15:06;;;;;;;6.68;6.07;;;;;;;39.39;24.36;100338.06;5026537;28;20210;-62
2023/09/18 08:17:34;;;;;;;9.98;6.50;;;;;;;39.14;24.63;100334.97;5026455;28;20202;-59
2023/09/18 08:20:11;;;;;;;7.72;6.25;;;;;;;39.14;25.28;100335.84;5025591;28;20257;-58
2023/09/18 08:22:40;;;;;;;7.18;5.85;;;;;;;39.02;25.13;100336.56;5027078;28;20684;-60
2023/09/18 08:25:10;;;;;;;7.80;6.22;;;;;;;38.56;25.94;100331.63;5026597;28;20671;-59
2023/09/18 08:27:41;;;;;;;14.13;6.15;;;;;;;37.93;26.87;100336.72;5031035;28;20206;-59
2023/09/18 08:30:11;;;;;;;7.28;6.28;;;;;;;37.17;28.03;100338.75;5022078;28;20198;-58
2023/09/18 08:32:39;;;;;;;8.43;6.15;;;;;;;36.55;28.30;100338.94;5019708;28;20286;-60
2023/09/18 08:35:10;;;;;;;6.80;5.60;;;;;;;35.90;30.10;100338.28;5027643;28;20209;-59
2023/09/18 08:37:37;;;;;;;8.23;6.75;;;;;;;35.54;30.15;100336.06;5030740;28;20592;-60
2023/09/18 08:40:10;;;;;;;6.90;5.72;;;;;;;35.28;30.62;100335.44;5030368;28;20560;-59
2023/09/18 08:42:40;;;;;;;8.65;5.65;;;;;;;34.93;31.51;100325.91;5030017;28;20588;-58
2023/09/18 08:45:10;;;;;;;8.82;6.43;;;;;;;34.08;32.43;100335.00;5026297;28;20198;-61
2023/09/18 08:47:40;;;;;;;7.85;6.22;;;;;;;33.44;34.52;100336.38;5026056;28;20197;-60
2023/09/18 08:50:10;;;;;;;6.90;6.30;;;;;;;32.99;35.05;100329.38;5022602;28;20248;-59
2023/09/18 08:52:38;;;;;;;11.02;6.20;;;;;;;32.50;35.22;100330.78;5026409;28;20251;-63
2023/09/18 08:55:07;;;;;;;9.35;6.13;;;;;;;32.02;36.65;100322.09;5031759;28;20202;-60
2023/09/18 08:57:39;;;;;;;10.35;6.47;;;;;;;31.47;38.11;100322.88;5027162;28;20664;-60
2023/09/18 09:00:11;;;;;;;9.73;6.63;;;;;;;31.10;38.84;100317.50;5030686;28;20345;-61
2023/09/18 09:02:39;;;;;;;9.85;6.55;;;;;;;30.78;39.30;100321.34;5028721;28;20237;-60
2023/09/18 09:05:09;;;;;;;6.68;6.07;;;;;;;30.32;39.79;100314.03;5034475;28;20661;-61
2023/09/18 09:07:37;;;;;;;6.50;5.78;;;;;;;29.94;41.04;100315.59;5027865;28;20599;-59
2023/09/18 09:10:05;;;;;;;6.93;6.30;;;;;;;29.75;41.44;100313.75;5032594;28;20217;-61
2023/09/18 09:12:57;;;;;;;6.70;5.97;;;;;;;29.53;42.20;100314.75;5033596;28;20571;-59
2023/09/18 09:15:28;;;;;;;7.13;5.93;;;;;;;29.41;42.56;100320.25;5023306;28;20210;-61
2023/09/18 09:18:05;;;;;;;8.43;6.53;;;;;;;29.34;42.82;100318.13;5032938;28;20210;-62
2023/09/18 09:20:36;;;;;;;7.18;6.32;;;;;;;29.21;42.88;100325.47;5028742;28;20223;-61
2023/09/18 09:23:07;;;;;;;6.70;6.10;;;;;;;29.23;43.43;100320.84;5034150;28;20309;-63
2023/09/18 09:25:35;;;;;;;7.43;6.18;;;;;;;29.25;42.94;100313.59;5032004;28;20744;-61
2023/09/18 09:28:05;;;;;;;8.10;5.72;;;;;;;29.17;42.92;100317.91;5034311;28;20572;-60
2023/09/18 09:30:35;;;;;;;10.90;6.28;;;;;;;29.11;43.03;100312.13;5034159;28;20203;-61
2023/09/18 09:33:06;;;;;;;9.63;5.95;;;;;;;29.08;43.37;100309.72;5023205;28;20234;-59
2023/09/18 09:35:36;;;;;;;7.80;5.85;;;;;;;29.11;43.19;100306.81;5031737;28;20227;-60
2023/09/18 09:38:09;;;;;;;8.40;6.00;;;;;;;29.23;43.20;100304.91;5032547;28;20238;-62
2023/09/18 09:40:40;;;;;;;8.70;5.70;;;;;;;29.37;42.75;100293.13;5034175;28;20620;-61
2023/09/18 09:43:09;;;;;;;7.15;5.63;;;;;;;29.48;42.28;100302.81;5032323;28;20817;-61
2023/09/18 09:45:38;;;;;;;6.50;5.90;;;;;;;29.47;42.03;100299.31;5034106;28;20230;-61
2023/09/18 09:48:07;;;;;;;6.82;5.65;;;;;;;29.44;42.19;100296.09;5029524;28;20207;-61
2023/09/18 09:50:46;;;;;;;6.07;5.18;;;;;;;29.44;42.17;100286.31;5031753;28;20682;-61
2023/09/18 09:53:15;;;;;;;5.70;5.20;;;;;;;29.48;41.29;100292.19;5021133;28;20531;-61
2023/09/18 09:55:43;;;;;;;5.93;5.35;;;;;;;29.39;41.37;100287.69;5033693;28;20210;-59
2023/09/18 09:58:13;;;;;;;6.00;5.40;;;;;;;29.32;42.12;100282.91;5031177;28;20238;-63
2023/09/18 10:00:47;;;;;;;6.13;4.90;;;;;;;29.23;41.89;100274.88;5030743;28;20261;-60
2023/09/18 10:03:18;;;;;;;7.15;5.68;;;;;;;29.10;42.01;100273.31;5031811;28;20253;-59
2023/09/18 10:05:51;;;;;;;7.00;4.70;;;;;;;29.06;41.40;100268.41;5029655;28;20213;-63
2023/09/18 10:08:23;;;;;;;6.00;5.38;;;;;;;29.08;41.28;100274.41;5030280;28;20615;-61
2023/09/18 10:10:53;;;;;;;4.70;4.30;;;;;;;29.19;40.91;100266.34;5031463;28;20293;-60
2023/09/18 10:13:27;;;;;;;5.00;4.20;;;;;;;29.26;40.31;100262.19;5032323;28;20199;-59
2023/09/18 10:15:57;;;;;;;4.70;4.30;;;;;;;29.36;39.78;100259.59;5032898;28;20229;-59
2023/09/18 10:18:28;;;;;;;5.82;4.45;;;;;;;29.44;39.20;100258.94;5033172;28;20206;-59
2023/09/18 10:21:07;;;;;;;5.57;3.60;;;;;;;29.55;38.85;100258.81;5029044;28;20665;-60
2023/09/18 10:23:47;;;;;;;4.40;4.07;;;;;;;29.64;38.64;100244.75;5033057;28;20302;-60
2023/09/18 10:26:23;;;;;;;4.60;3.75;;;;;;;29.87;38.54;100240.06;5032920;28;20668;-60
2023/09/18 10:28:56;;;;;;;4.55;4.22;;;;;;;30.20;37.70;100246.84;5029974;28;20206;-62
2023/09/18 10:31:24;;;;;;;4.43;3.53;;;;;;;30.60;36.23;100243.22;5031239;28;20577;-61
2023/09/18 10:33:54;;;;;;;3.67;2.80;;;;;;;30.92;34.78;100236.72;5026068;28;20198;-59
2023/09/18 10:36:27;;;;;;;4.60;3.10;;;;;;;30.85;34.36;100230.28;5030898;28;20218;-59
2023/09/18 10:38:57;;;;;;;3.58;3.28;;;;;;;30.97;34.25;100229.16;5030906;28;20725;-60
2023/09/18 10:41:27;;;;;;;4.68;3.30;;;;;;;31.02;34.24;100229.56;5027928;28;20222;-58
2023/09/18 10:43:57;;;;;;;5.20;3.70;;;;;;;31.14;34.69;100225.72;5032093;28;20215;-61
2023/09/18 10:46:26;;;;;;;5.03;3.83;;;;;;;31.36;34.74;100223.72;5019306;28;20249;-60
2023/09/18 10:48:55;;;;;;;4.15;3.72;;;;;;;31.46;34.10;100221.84;5028622;28;20253;-61
2023/09/18 10:51:26;;;;;;;5.40;3.85;;;;;;;31.50;34.70;100225.88;5033049;28;20535;-60
2023/09/18 10:53:57;;;;;;;6.40;5.82;;;;;;;31.47;33.90;100226.16;5018100;28;20293;-60
2023/09/18 10:56:27;;;;;;;5.07;3.58;;;;;;;31.21;34.04;100210.84;5023441;28;20296;-60
2023/09/18 10:59:00;;;;;;;5.30;3.92;;;;;;;31.13;34.73;100210.75;5024804;28;20215;-63
2023/09/18 11:01:30;;;;;;;5.28;3.80;;;;;;;31.17;35.07;100209.47;5032491;28;20569;-60
2023/09/18 11:04:02;;;;;;;3.88;3.58;;;;;;;31.30;34.95;100214.47;5032809;28;20289;-59
2023/09/18 11:07:09;;;;;;;4.65;3.38;;;;;;;31.31;34.08;100204.69;5032321;28;20210;-60
2023/09/18 11:09:45;;;;;;;3.70;3.40;;;;;;;31.33;34.33;100202.69;5032320;28;20212;-62
2023/09/18 11:12:16;;;;;;;3.72;3.35;;;;;;;31.18;33.71;100200.47;5026903;28;20592;-63
2023/09/18 11:14:52;;;;;;;3.60;3.35;;;;;;;30.91;34.32;100195.97;5027636;28;20198;-64
2023/09/18 11:17:30;;;;;;;3.47;3.17;;;;;;;30.79;34.52;100190.00;5026338;28;20579;-60
2023/09/18 11:20:11;;;;;;;6.18;3.58;;;;;;;30.75;34.93;100193.09;5031336;28;20213;-58
2023/09/18 11:22:47;;;;;;;5.75;3.92;;;;;;;30.49;34.72;100188.34;5032179;28;20202;-60
2023/09/18 11:25:37;;;;;;;4.63;3.72;;;;;;;30.04;35.50;100180.09;5031900;28;20206;-59
2023/09/18 11:28:08;;;;;;;4.82;4.30;;;;;;;29.82;35.73;100184.69;5025518;28;20635;-54
2023/09/18 11:30:38;;;;;;;8.10;4.38;;;;;;;29.75;36.42;100188.91;5029288;28;20293;-54
2023/09/18 11:33:07;;;;;;;8.35;4.60;;;;;;;29.70;36.78;100175.16;5028982;28;20289;-54
2023/09/18 11:35:37;;;;;;;5.15;4.25;;;;;;;29.72;36.72;100183.00;5030497;28;20202;-56
2023/09/18 11:38:08;;;;;;;7.07;4.18;;;;;;;29.72;36.42;100186.50;5031427;28;20725;-57
2023/09/18 11:40:39;;;;;;;4.70;4.30;;;;;;;29.70;36.90;100179.66;5031970;28;20719;-53
2023/09/18 11:43:29;;;;;;;4.38;3.97;;;;;;;29.55;36.48;100179.16;5032113;28;20558;-62
2023/09/18 11:45:59;;;;;;;4.35;3.95;;;;;;;29.30;37.67;100183.97;5027269;28;20207;-60
2023/09/18 11:48:29;;;;;;;5.68;4.05;;;;;;;29.27;37.90;100186.06;5024200;28;20299;-60
2023/09/18 11:50:59;;;;;;;9.07;4.50;;;;;;;29.38;37.75;100170.03;5031483;28;20214;-61
2023/09/18 11:53:29;;;;;;;5.22;4.53;;;;;;;29.54;37.13;100170.38;5028895;28;20199;-62